createdAt,value
2023-04-09T00:00:32.099Z,3.05
2023-04-09T00:04:34.209Z,2.88
2023-04-09T00:08:35.995Z,3.08
2023-04-09T00:12:37.872Z,3.20
2023-04-09T00:16:40.641Z,2.78
2023-04-09T00:20:44.272Z,3.10
2023-04-09T00:24:46.208Z,3.10
2023-04-09T00:28:47.902Z,3.10
2023-04-09T00:32:55.946Z,3.40
2023-04-09T00:36:57.758Z,3.33
2023-04-09T00:40:59.518Z,2.78
2023-04-09T00:45:01.772Z,3.58
2023-04-09T00:49:03.697Z,3.15
2023-04-09T00:53:05.853Z,3.25
2023-04-09T00:57:07.768Z,4.85
2023-04-09T01:01:09.683Z,4.22
2023-04-09T01:05:12.995Z,2.97
2023-04-09T01:09:24.997Z,2.85
2023-04-09T01:13:53.206Z,3.15
2023-04-09T01:18:22.333Z,2.90
2023-04-09T01:22:24.107Z,2.72
2023-04-09T01:26:41.283Z,2.92
2023-04-09T01:30:48.029Z,3.25
2023-04-09T01:34:51.343Z,2.78
2023-04-09T01:38:56.027Z,3.35
2023-04-09T01:42:59.508Z,2.95
2023-04-09T01:47:01.879Z,4.05
2023-04-09T01:51:04.135Z,3.35
2023-04-09T01:55:06.510Z,3.67
2023-04-09T01:59:08.747Z,3.28
2023-04-09T02:03:19.622Z,3.70
2023-04-09T02:07:30.552Z,3.75
2023-04-09T02:11:34.135Z,7.68
2023-04-09T02:15:38.963Z,7.90
2023-04-09T02:19:44.072Z,6.00
2023-04-09T02:23:45.904Z,4.55
2023-04-09T02:27:47.652Z,3.50
2023-04-09T02:31:50.723Z,4.13
2023-04-09T02:35:52.469Z,3.40
2023-04-09T02:39:54.543Z,3.15
2023-04-09T02:43:56.296Z,3.00
2023-04-09T02:47:59.974Z,4.68
2023-04-09T02:52:02.107Z,4.20
2023-04-09T02:56:04.208Z,3.58
2023-04-09T03:00:06.665Z,2.95
2023-04-09T03:04:08.593Z,4.00
2023-04-09T03:08:10.337Z,4.75
2023-04-09T03:12:12.408Z,4.47
2023-04-09T03:16:14.599Z,3.80
2023-04-09T03:20:16.617Z,4.38
2023-04-09T03:24:19.197Z,3.47
2023-04-09T03:28:21.423Z,4.38
2023-04-09T03:32:27.648Z,3.88
2023-04-09T03:36:31.249Z,3.47
2023-04-09T03:40:38.214Z,3.22
2023-04-09T03:44:40.362Z,4.07
2023-04-09T03:48:46.003Z,4.20
2023-04-09T03:52:49.065Z,5.25
2023-04-09T03:56:51.253Z,9.23
2023-04-09T04:00:57.973Z,7.20
2023-04-09T04:05:09.789Z,5.20
2023-04-09T04:09:19.414Z,5.20
2023-04-09T04:13:34.751Z,4.30
2023-04-09T04:17:41.309Z,6.07
2023-04-09T04:21:53.008Z,6.53
2023-04-09T04:25:57.204Z,5.55
2023-04-09T04:30:06.042Z,5.55
2023-04-09T04:34:30.632Z,6.82
2023-04-09T04:38:41.416Z,8.43
2023-04-09T04:42:49.964Z,6.43
2023-04-09T04:46:51.883Z,5.50
2023-04-09T04:51:01.909Z,4.70
2023-04-09T04:55:12.343Z,4.72
2023-04-09T04:59:15.368Z,5.22
2023-04-09T05:03:28.945Z,5.70
2023-04-09T05:07:40.890Z,6.03
2023-04-09T05:11:42.724Z,6.22
2023-04-09T05:15:50.889Z,6.18
2023-04-09T05:19:53.844Z,4.82
2023-04-09T05:24:01.982Z,3.75
2023-04-09T05:28:07.000Z,4.55
2023-04-09T05:32:10.554Z,5.82
2023-04-09T05:36:18.703Z,4.20
2023-04-09T05:40:20.575Z,5.78
2023-04-09T05:44:22.787Z,5.93
2023-04-09T05:48:27.356Z,6.80
2023-04-09T05:52:29.344Z,6.90
2023-04-09T05:56:31.413Z,5.28
2023-04-09T06:00:33.343Z,4.60
2023-04-09T06:04:35.279Z,4.32
2023-04-09T06:08:37.156Z,3.85
2023-04-09T06:12:38.931Z,6.15
2023-04-09T06:16:40.763Z,5.25
2023-04-09T06:20:42.517Z,6.20
2023-04-09T06:24:44.353Z,6.28
2023-04-09T06:28:46.167Z,6.55
2023-04-09T06:32:54.320Z,7.15
2023-04-09T06:36:57.036Z,6.20
2023-04-09T06:40:59.065Z,7.32
2023-04-09T06:45:01.131Z,7.18
2023-04-09T06:49:02.879Z,6.30
2023-04-09T06:53:07.036Z,6.57
2023-04-09T06:57:08.853Z,6.07
2023-04-09T07:01:10.668Z,6.05
2023-04-09T07:05:12.469Z,4.95
2023-04-09T07:09:14.145Z,5.50
2023-04-09T07:13:16.834Z,5.43
2023-04-09T07:17:19.620Z,6.05
2023-04-09T07:21:21.373Z,7.07
2023-04-09T07:25:23.074Z,7.28
2023-04-09T07:29:25.004Z,7.68
2023-04-09T07:33:26.723Z,5.45
2023-04-09T07:37:28.413Z,5.00
2023-04-09T07:41:30.336Z,7.85
2023-04-09T07:45:32.077Z,6.40
2023-04-09T07:49:37.056Z,8.13
2023-04-09T07:53:38.782Z,4.75
2023-04-09T07:57:40.646Z,4.05
2023-04-09T08:01:43.096Z,4.60
2023-04-09T08:05:45.536Z,4.32
2023-04-09T08:09:47.732Z,5.63
2023-04-09T08:13:49.420Z,7.18
2023-04-09T08:17:51.699Z,5.10
2023-04-09T08:21:53.466Z,8.63
2023-04-09T08:25:55.480Z,8.50
2023-04-09T08:29:57.193Z,6.78
2023-04-09T08:33:59.360Z,6.40
2023-04-09T08:38:01.017Z,9.48
2023-04-09T08:42:05.202Z,9.25
2023-04-09T08:46:07.048Z,9.70
2023-04-09T08:50:09.159Z,10.32
2023-04-09T08:54:14.392Z,8.65
2023-04-09T08:58:16.094Z,7.43
2023-04-09T09:02:17.841Z,9.90
2023-04-09T09:06:24.645Z,8.48
2023-04-09T09:10:40.665Z,8.00
2023-04-09T09:14:42.402Z,10.10
2023-04-09T09:18:44.836Z,10.93
2023-04-09T09:22:54.850Z,10.48
2023-04-09T09:26:58.868Z,8.80
2023-04-09T09:31:11.346Z,8.90
2023-04-09T09:35:13.238Z,7.82
2023-04-09T09:39:17.516Z,8.85
2023-04-09T09:43:19.239Z,8.98
2023-04-09T09:47:22.883Z,8.38
2023-04-09T09:51:27.796Z,7.25
2023-04-09T09:55:41.530Z,7.65
2023-04-09T10:00:06.520Z,10.05
2023-04-09T10:04:14.876Z,8.57
2023-04-09T10:08:17.637Z,6.90
2023-04-09T10:12:23.825Z,5.93
2023-04-09T10:16:27.353Z,6.07
2023-04-09T10:20:32.563Z,7.03
2023-04-09T10:24:35.658Z,6.97
2023-04-09T10:28:38.214Z,6.10
2023-04-09T10:32:40.071Z,6.25
2023-04-09T10:36:49.636Z,6.60
2023-04-09T10:40:51.543Z,5.50
2023-04-09T10:45:08.132Z,4.25
2023-04-09T10:49:12.175Z,6.50
2023-04-09T10:53:24.552Z,5.40
2023-04-09T10:57:26.455Z,3.88
2023-04-09T11:01:28.312Z,4.68
2023-04-09T11:05:35.623Z,4.07
2023-04-09T11:09:37.394Z,4.55
2023-04-09T11:13:41.618Z,3.30
2023-04-09T11:17:43.510Z,3.10
2023-04-09T11:21:46.359Z,2.53
2023-04-09T11:25:50.820Z,2.17
2023-04-09T11:29:56.199Z,2.88
2023-04-09T11:33:57.897Z,2.58
2023-04-09T11:37:59.621Z,2.13
2023-04-09T11:42:01.892Z,2.28
2023-04-09T11:46:04.587Z,2.90
2023-04-09T11:50:08.050Z,2.30
2023-04-09T11:54:12.224Z,1.92
2023-04-09T11:58:14.563Z,1.90
2023-04-09T12:02:19.333Z,2.33
2023-04-09T12:06:25.547Z,2.10
2023-04-09T12:10:29.407Z,2.45
2023-04-09T12:14:31.360Z,2.28
2023-04-09T12:18:36.439Z,2.60
2023-04-09T12:22:40.839Z,2.85
2023-04-09T12:26:43.247Z,2.58
2023-04-09T12:30:45.312Z,3.78
2023-04-09T12:34:47.508Z,2.70
2023-04-09T12:38:49.549Z,3.75
2023-04-09T12:42:51.695Z,3.42
2023-04-09T12:46:53.739Z,2.47
2023-04-09T12:50:55.461Z,3.42
2023-04-09T12:54:57.244Z,3.13
2023-04-09T12:58:58.932Z,2.40
2023-04-09T13:03:01.035Z,2.40
2023-04-09T13:07:02.744Z,3.42
2023-04-09T13:11:04.670Z,2.65
2023-04-09T13:15:07.162Z,2.83
2023-04-09T13:19:09.695Z,2.40
2023-04-09T13:23:11.432Z,2.38
2023-04-09T13:27:13.466Z,2.42
2023-04-09T13:31:15.279Z,1.95
2023-04-09T13:35:19.048Z,1.98
2023-04-09T13:39:20.745Z,2.40
2023-04-09T13:43:27.802Z,2.25
2023-04-09T13:51:31.623Z,2.40
2023-04-09T13:55:33.280Z,3.00
2023-04-09T13:59:34.953Z,2.35
2023-04-09T14:03:38.659Z,2.45
2023-04-09T14:07:40.443Z,2.15
2023-04-09T14:11:42.114Z,2.78
2023-04-09T14:15:45.375Z,3.00
2023-04-09T14:19:47.117Z,2.35
2023-04-09T14:23:48.871Z,2.30
2023-04-09T14:27:50.861Z,2.45
2023-04-09T14:31:53.503Z,5.70
2023-04-09T14:35:56.335Z,4.00
2023-04-09T14:39:58.049Z,3.28
2023-04-09T14:43:59.944Z,3.40
2023-04-09T14:48:01.659Z,2.80
2023-04-09T14:52:03.427Z,4.65
2023-04-09T14:56:05.547Z,4.15
2023-04-09T15:00:08.941Z,3.58
2023-04-09T15:04:10.770Z,3.80
2023-04-09T15:08:13.027Z,3.50
2023-04-09T15:12:14.809Z,3.50
2023-04-09T15:16:21.922Z,4.65
2023-04-09T15:24:25.347Z,5.80
2023-04-09T15:28:27.053Z,4.28
2023-04-09T15:32:30.465Z,3.15
2023-04-09T15:36:32.479Z,2.70
2023-04-09T15:40:34.178Z,3.60
2023-04-09T15:44:36.247Z,5.50
2023-04-09T15:48:38.225Z,4.72
2023-04-09T15:52:39.935Z,3.88
2023-04-09T15:56:42.193Z,3.97
2023-04-09T16:00:45.017Z,3.97
2023-04-09T16:04:46.792Z,6.90
2023-04-09T16:08:48.687Z,5.95
2023-04-09T16:12:50.661Z,4.35
2023-04-09T16:16:53.770Z,7.15
2023-04-09T16:20:56.879Z,5.63
2023-04-09T16:24:59.035Z,5.50
2023-04-09T16:29:04.089Z,5.70
2023-04-09T16:33:06.380Z,5.00
2023-04-09T16:37:08.213Z,3.97
2023-04-09T16:41:09.931Z,3.72
2023-04-09T16:45:11.687Z,4.00
2023-04-09T16:49:13.452Z,4.00
2023-04-09T16:53:15.651Z,3.92
2023-04-09T16:57:17.546Z,3.97
2023-04-09T17:01:19.368Z,4.53
2023-04-09T17:05:22.466Z,4.90
2023-04-09T17:09:25.077Z,4.95
2023-04-09T17:13:27.357Z,4.13
2023-04-09T17:17:29.094Z,4.00
2023-04-09T17:21:30.994Z,3.70
2023-04-09T17:25:32.656Z,2.67
2023-04-09T17:29:34.482Z,3.90
2023-04-09T17:33:36.764Z,4.30
2023-04-09T17:37:38.648Z,4.18
2023-04-09T17:41:40.479Z,3.17
2023-04-09T17:45:42.411Z,5.00
2023-04-09T17:49:44.543Z,4.50
2023-04-09T17:53:47.334Z,5.25
2023-04-09T17:57:49.104Z,4.28
2023-04-09T18:01:51.280Z,4.00
2023-04-09T18:05:54.278Z,3.45
2023-04-09T18:10:00.707Z,2.95
2023-04-09T18:14:07.755Z,3.23
2023-04-09T18:22:12.754Z,3.83
2023-04-09T18:26:14.438Z,3.20
2023-04-09T18:30:16.158Z,3.33
2023-04-09T18:34:18.110Z,4.18
2023-04-09T18:38:21.180Z,3.50
2023-04-09T18:42:22.895Z,3.70
2023-04-09T18:46:24.737Z,3.40
2023-04-09T18:50:26.444Z,2.45
2023-04-09T18:54:28.287Z,2.00
2023-04-09T18:58:30.021Z,2.05
2023-04-09T19:02:32.092Z,3.60
2023-04-09T19:06:35.946Z,4.63
2023-04-09T19:10:37.792Z,4.20
2023-04-09T19:14:40.467Z,4.00
2023-04-09T19:18:42.208Z,4.28
2023-04-09T19:22:48.722Z,2.53
2023-04-09T19:26:52.818Z,2.03
2023-04-09T19:30:54.740Z,2.00
2023-04-09T19:34:56.740Z,2.30
2023-04-09T19:38:58.627Z,1.70
2023-04-09T19:43:00.326Z,1.60
2023-04-09T19:47:02.081Z,1.80
2023-04-09T19:51:04.158Z,1.55
2023-04-09T19:55:06.451Z,1.55
2023-04-09T19:59:08.400Z,2.60
2023-04-09T20:03:10.608Z,2.88
2023-04-09T20:07:12.544Z,3.13
2023-04-09T20:11:18.111Z,2.70
2023-04-09T20:15:21.220Z,2.40
2023-04-09T20:19:23.153Z,2.15
2023-04-09T20:23:24.868Z,2.17
2023-04-09T20:27:27.048Z,2.03
2023-04-09T20:31:29.196Z,3.55
2023-04-09T20:35:34.704Z,2.90
2023-04-09T20:39:36.738Z,3.80
2023-04-09T20:43:38.521Z,3.78
2023-04-09T20:47:41.034Z,3.92
2023-04-09T20:51:42.873Z,3.10
2023-04-09T20:55:45.880Z,3.17
2023-04-09T20:59:48.179Z,3.53
2023-04-09T21:03:50.201Z,3.63
2023-04-09T21:07:53.102Z,2.92
2023-04-09T21:11:55.220Z,3.15
2023-04-09T21:15:57.596Z,4.30
2023-04-09T21:19:59.311Z,5.25
2023-04-09T21:24:01.683Z,4.82
2023-04-09T21:28:03.463Z,6.30
2023-04-09T21:32:05.425Z,7.60
2023-04-09T21:36:08.013Z,7.30
2023-04-09T21:40:10.316Z,5.80
2023-04-09T21:44:12.522Z,3.78
2023-04-09T21:48:14.234Z,4.00
2023-04-09T21:52:17.188Z,4.20
2023-04-09T21:56:18.904Z,3.17
2023-04-09T22:00:20.716Z,2.80
2023-04-09T22:04:22.446Z,2.95
2023-04-09T22:08:24.218Z,2.70
2023-04-09T22:12:26.057Z,3.97
2023-04-09T22:16:28.008Z,4.10
2023-04-09T22:20:29.919Z,4.07
2023-04-09T22:24:31.598Z,3.30
2023-04-09T22:28:33.332Z,4.03
2023-04-09T22:32:35.178Z,4.30
2023-04-09T22:36:36.928Z,6.10
2023-04-09T22:40:38.606Z,4.30
2023-04-09T22:44:40.415Z,3.13
2023-04-09T22:48:58.831Z,3.80
2023-04-09T22:53:04.080Z,5.47
2023-04-09T22:57:06.417Z,5.57
2023-04-09T23:01:08.231Z,4.10
2023-04-09T23:05:10.148Z,4.00
2023-04-09T23:09:11.947Z,3.85
2023-04-09T23:13:18.092Z,3.33
2023-04-09T23:17:22.466Z,5.20
2023-04-09T23:21:24.196Z,7.47
2023-04-09T23:25:26.155Z,7.05
2023-04-09T23:29:27.900Z,4.85
2023-04-09T23:33:29.612Z,3.53
2023-04-09T23:37:31.375Z,4.75
2023-04-09T23:41:33.024Z,4.50
2023-04-09T23:45:34.996Z,4.35
2023-04-09T23:49:37.197Z,2.80
2023-04-09T23:53:38.878Z,5.80
2023-04-09T23:57:40.558Z,6.32
